sensor_id;sensor_type;location;lat;lon;timestamp;pressure;altitude;pressure_sealevel;temperature;humidity
58072;BME280;60383;46.626;18.866;2023-09-19T00:01:20;99976.66;;;22.41;67.29
58072;BME280;60383;46.626;18.866;2023-09-19T00:03:46;99981.03;;;22.25;68.18
58072;BME280;60383;46.626;18.866;2023-09-19T00:06:11;99983.06;;;22.42;67.33
58072;BME280;60383;46.626;18.866;2023-09-19T00:08:41;99981.03;;;22.37;67.82
58072;BME280;60383;46.626;18.866;2023-09-19T00:11:09;99981.84;;;22.38;67.08
58072;BME280;60383;46.626;18.866;2023-09-19T00:13:36;99999.13;;;22.11;68.33
58072;BME280;60383;46.626;18.866;2023-09-19T00:16:08;99986.28;;;22.22;68.02
58072;BME280;60383;46.626;18.866;2023-09-19T00:18:36;99981.78;;;22.09;68.36
58072;BME280;60383;46.626;18.866;2023-09-19T00:21:01;99982.13;;;22.24;67.69
58072;BME280;60383;46.626;18.866;2023-09-19T00:23:30;99978.00;;;22.27;67.89
58072;BME280;60383;46.626;18.866;2023-09-19T00:25:59;99971.19;;;22.34;67.60
58072;BME280;60383;46.626;18.866;2023-09-19T00:28:26;99966.59;;;22.28;67.71
58072;BME280;60383;46.626;18.866;2023-09-19T00:30:52;99972.69;;;22.25;67.75
58072;BME280;60383;46.626;18.866;2023-09-19T00:33:20;99974.16;;;22.16;67.57
58072;BME280;60383;46.626;18.866;2023-09-19T00:38:14;99966.84;;;22.27;67.95
58072;BME280;60383;46.626;18.866;2023-09-19T00:40:45;99977.66;;;22.23;68.17
58072;BME280;60383;46.626;18.866;2023-09-19T00:43:11;99973.88;;;22.29;67.73
58072;BME280;60383;46.626;18.866;2023-09-19T00:45:37;99973.50;;;22.26;68.46
58072;BME280;60383;46.626;18.866;2023-09-19T00:48:08;99978.47;;;22.36;68.36
58072;BME280;60383;46.626;18.866;2023-09-19T00:50:35;99968.16;;;22.36;68.95
58072;BME280;60383;46.626;18.866;2023-09-19T00:53:01;99971.22;;;22.23;69.78
58072;BME280;60383;46.626;18.866;2023-09-19T00:55:30;99972.31;;;22.22;69.20
58072;BME280;60383;46.626;18.866;2023-09-19T00:57:58;99977.28;;;22.31;69.99
58072;BME280;60383;46.626;18.866;2023-09-19T01:00:24;99970.75;;;22.14;70.81
58072;BME280;60383;46.626;18.866;2023-09-19T01:02:50;99969.88;;;22.25;70.20
58072;BME280;60383;46.626;18.866;2023-09-19T01:05:15;99968.66;;;22.21;69.94
58072;BME280;60383;46.626;18.866;2023-09-19T01:07:41;99966.72;;;22.33;69.74
58072;BME280;60383;46.626;18.866;2023-09-19T01:10:14;99972.50;;;22.03;70.65
58072;BME280;60383;46.626;18.866;2023-09-19T01:20:40;99959.94;;;22.17;71.34
58072;BME280;60383;46.626;18.866;2023-09-19T01:26:10;99945.53;;;22.09;71.64
58072;BME280;60383;46.626;18.866;2023-09-19T01:28:53;99952.97;;;22.03;71.72
58072;BME280;60383;46.626;18.866;2023-09-19T01:31:21;99952.06;;;22.26;70.28
58072;BME280;60383;46.626;18.866;2023-09-19T01:34:02;99946.84;;;22.30;70.18
58072;BME280;60383;46.626;18.866;2023-09-19T01:36:34;99950.72;;;22.29;70.86
58072;BME280;60383;46.626;18.866;2023-09-19T01:39:03;99946.69;;;22.37;70.48
58072;BME280;60383;46.626;18.866;2023-09-19T01:44:24;99945.53;;;22.21;71.44
58072;BME280;60383;46.626;18.866;2023-09-19T01:46:52;99950.38;;;22.25;71.60
58072;BME280;60383;46.626;18.866;2023-09-19T01:49:46;99943.56;;;22.21;71.06
58072;BME280;60383;46.626;18.866;2023-09-19T01:52:16;99944.44;;;22.22;71.11
58072;BME280;60383;46.626;18.866;2023-09-19T01:54:56;99945.06;;;22.12;72.34
58072;BME280;60383;46.626;18.866;2023-09-19T01:58:25;99952.69;;;22.16;71.42
58072;BME280;60383;46.626;18.866;2023-09-19T02:00:23;99937.19;;;21.97;71.02
58072;BME280;60383;46.626;18.866;2023-09-19T02:02:50;99945.19;;;22.05;70.07
58072;BME280;60383;46.626;18.866;2023-09-19T02:05:23;99945.81;;;21.95;70.38
58072;BME280;60383;46.626;18.866;2023-09-19T02:07:49;99944.84;;;22.01;70.32
58072;BME280;60383;46.626;18.866;2023-09-19T02:10:15;99934.41;;;21.97;70.66
58072;BME280;60383;46.626;18.866;2023-09-19T02:12:42;99930.06;;;21.89;71.96
58072;BME280;60383;46.626;18.866;2023-09-19T02:15:08;99934.09;;;21.81;71.98
58072;BME280;60383;46.626;18.866;2023-09-19T02:17:34;99932.25;;;21.87;71.64
58072;BME280;60383;46.626;18.866;2023-09-19T02:20:00;99945.81;;;21.83;71.57
58072;BME280;60383;46.626;18.866;2023-09-19T02:22:26;99943.38;;;21.87;71.75
58072;BME280;60383;46.626;18.866;2023-09-19T02:24:52;99939.31;;;21.78;72.79
58072;BME280;60383;46.626;18.866;2023-09-19T02:27:19;99936.75;;;21.76;72.96
58072;BME280;60383;46.626;18.866;2023-09-19T02:29:44;99938.69;;;21.76;73.28
58072;BME280;60383;46.626;18.866;2023-09-19T02:32:10;99930.59;;;21.74;72.80
58072;BME280;60383;46.626;18.866;2023-09-19T02:34:36;99933.00;;;21.59;73.75
58072;BME280;60383;46.626;18.866;2023-09-19T02:37:03;99931.25;;;21.46;74.47
58072;BME280;60383;46.626;18.866;2023-09-19T02:39:30;99927.41;;;21.47;74.01
58072;BME280;60383;46.626;18.866;2023-09-19T02:41:56;99931.53;;;21.56;72.91
58072;BME280;60383;46.626;18.866;2023-09-19T02:44:21;99936.88;;;21.58;72.55
58072;BME280;60383;46.626;18.866;2023-09-19T02:46:49;99930.59;;;21.62;72.42
58072;BME280;60383;46.626;18.866;2023-09-19T02:49:14;99921.59;;;21.60;72.21
58072;BME280;60383;46.626;18.866;2023-09-19T02:51:40;99924.53;;;21.65;72.02
58072;BME280;60383;46.626;18.866;2023-09-19T02:54:05;99929.00;;;21.54;72.60
58072;BME280;60383;46.626;18.866;2023-09-19T02:56:31;99922.06;;;21.33;73.76
58072;BME280;60383;46.626;18.866;2023-09-19T02:58:57;99922.78;;;21.41;73.44
58072;BME280;60383;46.626;18.866;2023-09-19T03:01:23;99922.56;;;21.30;74.15
58072;BME280;60383;46.626;18.866;2023-09-19T03:03:49;99923.88;;;21.39;74.24
58072;BME280;60383;46.626;18.866;2023-09-19T03:06:15;99921.31;;;21.26;74.62
58072;BME280;60383;46.626;18.866;2023-09-19T03:08:41;99912.59;;;21.22;74.84
58072;BME280;60383;46.626;18.866;2023-09-19T03:11:07;99913.00;;;21.14;74.73
58072;BME280;60383;46.626;18.866;2023-09-19T03:13:35;99906.56;;;21.14;75.38
58072;BME280;60383;46.626;18.866;2023-09-19T03:16:01;99917.19;;;21.05;76.06
58072;BME280;60383;46.626;18.866;2023-09-19T03:18:30;99925.19;;;21.25;76.11
58072;BME280;60383;46.626;18.866;2023-09-19T03:20:57;99915.03;;;21.07;76.20
58072;BME280;60383;46.626;18.866;2023-09-19T03:23:26;99914.41;;;21.05;76.19
58072;BME280;60383;46.626;18.866;2023-09-19T03:25:52;99905.16;;;20.81;77.43
58072;BME280;60383;46.626;18.866;2023-09-19T03:28:21;99919.19;;;20.86;78.12
58072;BME280;60383;46.626;18.866;2023-09-19T03:30:58;99911.38;;;21.06;77.88
58072;BME280;60383;46.626;18.866;2023-09-19T03:33:24;99916.56;;;21.03;78.37
58072;BME280;60383;46.626;18.866;2023-09-19T03:35:53;99918.03;;;21.05;78.24
58072;BME280;60383;46.626;18.866;2023-09-19T03:38:19;99915.78;;;21.14;77.25
58072;BME280;60383;46.626;18.866;2023-09-19T03:40:45;99916.09;;;21.06;77.38
58072;BME280;60383;46.626;18.866;2023-09-19T03:43:10;99910.28;;;21.08;77.41
58072;BME280;60383;46.626;18.866;2023-09-19T03:45:36;99911.88;;;21.03;77.47
58072;BME280;60383;46.626;18.866;2023-09-19T03:48:08;99918.38;;;20.85;78.49
58072;BME280;60383;46.626;18.866;2023-09-19T03:50:33;99902.47;;;20.74;78.87
58072;BME280;60383;46.626;18.866;2023-09-19T03:52:59;99906.50;;;20.59;79.27
58072;BME280;60383;46.626;18.866;2023-09-19T03:55:24;99909.28;;;20.78;79.49
58072;BME280;60383;46.626;18.866;2023-09-19T03:57:50;99902.63;;;20.61;80.03
58072;BME280;60383;46.626;18.866;2023-09-19T04:00:15;99902.72;;;20.72;79.77
58072;BME280;60383;46.626;18.866;2023-09-19T04:02:43;99911.16;;;20.66;80.45
58072;BME280;60383;46.626;18.866;2023-09-19T04:05:11;99903.38;;;20.68;80.39
58072;BME280;60383;46.626;18.866;2023-09-19T04:07:36;99901.44;;;20.56;81.01
58072;BME280;60383;46.626;18.866;2023-09-19T04:10:02;99905.84;;;20.46;81.37
58072;BME280;60383;46.626;18.866;2023-09-19T04:12:28;99910.59;;;20.57;80.95
58072;BME280;60383;46.626;18.866;2023-09-19T04:14:53;99917.75;;;20.53;81.48
58072;BME280;60383;46.626;18.866;2023-09-19T04:17:19;99912.19;;;20.53;82.03
58072;BME280;60383;46.626;18.866;2023-09-19T04:19:45;99912.25;;;20.46;82.01
58072;BME280;60383;46.626;18.866;2023-09-19T04:22:11;99906.84;;;20.51;82.87
58072;BME280;60383;46.626;18.866;2023-09-19T04:24:38;99906.31;;;20.42;83.69
58072;BME280;60383;46.626;18.866;2023-09-19T04:27:04;99912.56;;;20.56;82.91
58072;BME280;60383;46.626;18.866;2023-09-19T04:29:30;99911.22;;;20.59;83.67
58072;BME280;60383;46.626;18.866;2023-09-19T04:31:56;99915.56;;;20.55;83.75
58072;BME280;60383;46.626;18.866;2023-09-19T04:34:24;99927.66;;;20.49;84.25
58072;BME280;60383;46.626;18.866;2023-09-19T04:36:50;99922.53;;;20.46;84.61
58072;BME280;60383;46.626;18.866;2023-09-19T04:39:15;99928.81;;;20.41;84.56
58072;BME280;60383;46.626;18.866;2023-09-19T04:41:42;99940.78;;;20.41;84.66
58072;BME280;60383;46.626;18.866;2023-09-19T04:44:07;99937.91;;;20.48;84.22
58072;BME280;60383;46.626;18.866;2023-09-19T04:46:34;99941.38;;;20.43;83.99
58072;BME280;60383;46.626;18.866;2023-09-19T04:48:59;99942.78;;;20.53;82.98
58072;BME280;60383;46.626;18.866;2023-09-19T04:51:25;99950.00;;;20.72;81.25
58072;BME280;60383;46.626;18.866;2023-09-19T04:53:54;99947.34;;;20.78;80.98
58072;BME280;60383;46.626;18.866;2023-09-19T04:56:19;99954.22;;;20.94;80.27
58072;BME280;60383;46.626;18.866;2023-09-19T04:58:46;99958.81;;;21.00;80.00
58072;BME280;60383;46.626;18.866;2023-09-19T05:01:11;99953.84;;;20.90;80.50
58072;BME280;60383;46.626;18.866;2023-09-19T05:03:39;99952.72;;;20.79;80.78
58072;BME280;60383;46.626;18.866;2023-09-19T05:06:04;99952.53;;;20.74;81.38
58072;BME280;60383;46.626;18.866;2023-09-19T05:08:30;99957.16;;;20.80;81.40
58072;BME280;60383;46.626;18.866;2023-09-19T05:10:56;99962.13;;;20.78;81.33
58072;BME280;60383;46.626;18.866;2023-09-19T05:13:22;99958.91;;;20.93;81.04
58072;BME280;60383;46.626;18.866;2023-09-19T05:15:48;99960.38;;;20.96;80.59
58072;BME280;60383;46.626;18.866;2023-09-19T05:18:15;99962.91;;;20.85;81.07
58072;BME280;60383;46.626;18.866;2023-09-19T05:20:41;99958.81;;;21.00;80.73
58072;BME280;60383;46.626;18.866;2023-09-19T05:23:07;99971.88;;;20.99;80.82
58072;BME280;60383;46.626;18.866;2023-09-19T05:25:35;99981.19;;;20.93;81.20
58072;BME280;60383;46.626;18.866;2023-09-19T05:28:06;99982.31;;;21.04;81.12
58072;BME280;60383;46.626;18.866;2023-09-19T05:30:33;99986.66;;;21.12;80.50
58072;BME280;60383;46.626;18.866;2023-09-19T05:32:58;99993.47;;;21.16;80.35
58072;BME280;60383;46.626;18.866;2023-09-19T05:35:24;100003.38;;;21.12;80.29
58072;BME280;60383;46.626;18.866;2023-09-19T05:37:52;99998.78;;;21.17;80.03
58072;BME280;60383;46.626;18.866;2023-09-19T05:40:18;100002.53;;;21.11;79.72
58072;BME280;60383;46.626;18.866;2023-09-19T05:42:44;100007.84;;;21.13;79.44
58072;BME280;60383;46.626;18.866;2023-09-19T05:45:13;100014.59;;;21.47;78.51
58072;BME280;60383;46.626;18.866;2023-09-19T05:47:42;100014.00;;;21.45;78.38
58072;BME280;60383;46.626;18.866;2023-09-19T05:50:09;100025.78;;;21.59;76.98
58072;BME280;60383;46.626;18.866;2023-09-19T05:52:35;100024.84;;;21.65;75.66
58072;BME280;60383;46.626;18.866;2023-09-19T05:55:06;100022.66;;;21.91;74.39
58072;BME280;60383;46.626;18.866;2023-09-19T05:57:34;100017.31;;;22.13;73.75
58072;BME280;60383;46.626;18.866;2023-09-19T06:00:00;100025.63;;;22.49;71.94
58072;BME280;60383;46.626;18.866;2023-09-19T06:02:25;100035.06;;;22.60;71.59
58072;BME280;60383;46.626;18.866;2023-09-19T06:04:56;100042.50;;;22.54;71.65
58072;BME280;60383;46.626;18.866;2023-09-19T06:07:22;100042.63;;;22.59;70.55
58072;BME280;60383;46.626;18.866;2023-09-19T06:09:51;100043.00;;;22.39;70.49
58072;BME280;60383;46.626;18.866;2023-09-19T06:12:17;100050.03;;;22.42;70.29
58072;BME280;60383;46.626;18.866;2023-09-19T06:14:43;100051.13;;;22.17;69.96
58072;BME280;60383;46.626;18.866;2023-09-19T06:17:09;100064.59;;;22.08;69.71
58072;BME280;60383;46.626;18.866;2023-09-19T06:19:34;100073.69;;;22.04;69.40
58072;BME280;60383;46.626;18.866;2023-09-19T06:21:59;100083.50;;;21.94;69.31
58072;BME280;60383;46.626;18.866;2023-09-19T06:24:25;100080.94;;;21.81;69.19
58072;BME280;60383;46.626;18.866;2023-09-19T06:26:51;100073.69;;;22.04;68.82
58072;BME280;60383;46.626;18.866;2023-09-19T06:29:18;100083.63;;;22.11;68.09
58072;BME280;60383;46.626;18.866;2023-09-19T06:31:45;100088.59;;;21.97;68.78
58072;BME280;60383;46.626;18.866;2023-09-19T06:34:12;100092.47;;;21.96;68.73
58072;BME280;60383;46.626;18.866;2023-09-19T06:36:39;100106.88;;;21.81;69.04
58072;BME280;60383;46.626;18.866;2023-09-19T06:39:06;100112.75;;;21.61;69.64
58072;BME280;60383;46.626;18.866;2023-09-19T06:41:31;100122.63;;;21.76;68.92
58072;BME280;60383;46.626;18.866;2023-09-19T06:43:57;100142.13;;;21.45;69.89
58072;BME280;60383;46.626;18.866;2023-09-19T06:46:23;100145.28;;;21.49;69.42
58072;BME280;60383;46.626;18.866;2023-09-19T06:48:48;100144.97;;;21.08;70.97
58072;BME280;60383;46.626;18.866;2023-09-19T06:51:14;100148.00;;;21.06;71.35
58072;BME280;60383;46.626;18.866;2023-09-19T06:53:41;100156.84;;;21.03;71.02
58072;BME280;60383;46.626;18.866;2023-09-19T06:56:07;100164.88;;;20.93;71.70
58072;BME280;60383;46.626;18.866;2023-09-19T06:58:32;100175.19;;;20.67;72.32
58072;BME280;60383;46.626;18.866;2023-09-19T07:00:58;100176.84;;;20.75;72.75
58072;BME280;60383;46.626;18.866;2023-09-19T07:03:23;100173.47;;;20.73;73.84
58072;BME280;60383;46.626;18.866;2023-09-19T07:05:52;100177.41;;;21.02;72.47
58072;BME280;60383;46.626;18.866;2023-09-19T07:08:18;100180.63;;;20.99;72.97
58072;BME280;60383;46.626;18.866;2023-09-19T07:10:45;100196.31;;;20.75;73.95
58072;BME280;60383;46.626;18.866;2023-09-19T07:13:14;100211.00;;;20.82;73.92
58072;BME280;60383;46.626;18.866;2023-09-19T07:15:42;100208.53;;;20.74;74.38
58072;BME280;60383;46.626;18.866;2023-09-19T07:18:11;100224.50;;;20.60;74.79
58072;BME280;60383;46.626;18.866;2023-09-19T07:20:38;100222.50;;;20.67;75.29
58072;BME280;60383;46.626;18.866;2023-09-19T07:23:03;100227.72;;;20.57;75.10
58072;BME280;60383;46.626;18.866;2023-09-19T07:25:29;100240.03;;;20.42;76.17
58072;BME280;60383;46.626;18.866;2023-09-19T07:27:58;100235.25;;;20.50;75.80
58072;BME280;60383;46.626;18.866;2023-09-19T07:30:27;100230.81;;;20.23;76.71
58072;BME280;60383;46.626;18.866;2023-09-19T07:32:53;100243.22;;;20.21;76.82
58072;BME280;60383;46.626;18.866;2023-09-19T07:35:18;100241.81;;;20.05;77.02
58072;BME280;60383;46.626;18.866;2023-09-19T07:37:47;100247.41;;;20.30;76.47
58072;BME280;60383;46.626;18.866;2023-09-19T07:40:17;100252.69;;;20.38;75.89
58072;BME280;60383;46.626;18.866;2023-09-19T07:42:42;100259.28;;;20.19;76.78
58072;BME280;60383;46.626;18.866;2023-09-19T07:45:11;100259.50;;;20.17;77.07
58072;BME280;60383;46.626;18.866;2023-09-19T07:47:50;100267.16;;;20.22;76.96
58072;BME280;60383;46.626;18.866;2023-09-19T07:50:17;100277.59;;;20.26;76.81
58072;BME280;60383;46.626;18.866;2023-09-19T07:52:44;100291.50;;;20.26;76.74
58072;BME280;60383;46.626;18.866;2023-09-19T07:55:10;100291.97;;;20.23;77.10
58072;BME280;60383;46.626;18.866;2023-09-19T07:57:42;100295.50;;;20.05;78.12
58072;BME280;60383;46.626;18.866;2023-09-19T08:00:08;100303.59;;;20.14;77.84
58072;BME280;60383;46.626;18.866;2023-09-19T08:02:36;100300.91;;;20.25;77.91
58072;BME280;60383;46.626;18.866;2023-09-19T08:05:03;100293.44;;;20.26;77.89
58072;BME280;60383;46.626;18.866;2023-09-19T08:07:34;100293.78;;;20.36;77.60
58072;BME280;60383;46.626;18.866;2023-09-19T08:10:01;100304.63;;;20.45;77.21
58072;BME280;60383;46.626;18.866;2023-09-19T08:12:26;100303.53;;;20.52;76.94
58072;BME280;60383;46.626;18.866;2023-09-19T08:14:52;100295.66;;;20.42;77.91
58072;BME280;60383;46.626;18.866;2023-09-19T08:17:17;100307.66;;;20.43;77.88
58072;BME280;60383;46.626;18.866;2023-09-19T08:19:45;100304.41;;;20.71;77.97
58072;BME280;60383;46.626;18.866;2023-09-19T08:22:11;100303.47;;;20.84;78.95
58072;BME280;60383;46.626;18.866;2023-09-19T08:24:37;100299.44;;;20.80;79.91
58072;BME280;60383;46.626;18.866;2023-09-19T08:27:04;100313.59;;;20.79;80.96
58072;BME280;60383;46.626;18.866;2023-09-19T08:29:30;100307.91;;;20.92;79.63
58072;BME280;60383;46.626;18.866;2023-09-19T08:31:57;100314.09;;;20.94;80.57
58072;BME280;60383;46.626;18.866;2023-09-19T08:34:23;100315.41;;;20.92;81.17
58072;BME280;60383;46.626;18.866;2023-09-19T08:36:53;100305.66;;;21.01;80.55
58072;BME280;60383;46.626;18.866;2023-09-19T08:39:22;100310.38;;;21.00;79.72
58072;BME280;60383;46.626;18.866;2023-09-19T08:41:48;100320.31;;;21.15;78.16
58072;BME280;60383;46.626;18.866;2023-09-19T08:44:13;100323.78;;;21.10;78.06
58072;BME280;60383;46.626;18.866;2023-09-19T08:46:41;100320.69;;;21.00;78.63
58072;BME280;60383;46.626;18.866;2023-09-19T08:49:28;100325.72;;;21.10;77.44
58072;BME280;60383;46.626;18.866;2023-09-19T08:52:06;100325.53;;;21.04;77.29
58072;BME280;60383;46.626;18.866;2023-09-19T08:54:37;100339.50;;;21.23;74.92
58072;BME280;60383;46.626;18.866;2023-09-19T08:57:07;100339.13;;;21.19;75.22
58072;BME280;60383;46.626;18.866;2023-09-19T08:59:41;100343.50;;;21.09;74.91
58072;BME280;60383;46.626;18.866;2023-09-19T09:02:14;100343.56;;;21.02;75.71
58072;BME280;60383;46.626;18.866;2023-09-19T09:04:43;100329.25;;;20.98;75.78
58072;BME280;60383;46.626;18.866;2023-09-19T09:07:13;100320.28;;;20.96;76.12
58072;BME280;60383;46.626;18.866;2023-09-19T09:09:39;100317.66;;;21.01;76.12
58072;BME280;60383;46.626;18.866;2023-09-19T09:12:13;100323.50;;;21.18;75.21
58072;BME280;60383;46.626;18.866;2023-09-19T09:14:40;100325.44;;;21.36;74.81
58072;BME280;60383;46.626;18.866;2023-09-19T09:17:05;100319.63;;;21.38;74.26
58072;BME280;60383;46.626;18.866;2023-09-19T09:19:32;100316.94;;;21.31;75.59
58072;BME280;60383;46.626;18.866;2023-09-19T09:22:10;100312.69;;;21.47;74.96
58072;BME280;60383;46.626;18.866;2023-09-19T09:24:37;100308.28;;;21.58;74.33
58072;BME280;60383;46.626;18.866;2023-09-19T09:27:05;100318.59;;;21.88;71.18
58072;BME280;60383;46.626;18.866;2023-09-19T09:29:45;100322.47;;;21.87;71.54
58072;BME280;60383;46.626;18.866;2023-09-19T09:32:24;100319.50;;;22.00;70.21
58072;BME280;60383;46.626;18.866;2023-09-19T09:37:20;100305.22;;;22.39;68.98
58072;BME280;60383;46.626;18.866;2023-09-19T09:39:53;100301.09;;;22.42;69.79
58072;BME280;60383;46.626;18.866;2023-09-19T09:42:31;100307.84;;;22.64;67.71
58072;BME280;60383;46.626;18.866;2023-09-19T09:47:47;100316.84;;;22.78;66.51
58072;BME280;60383;46.626;18.866;2023-09-19T09:50:32;100328.22;;;22.65;66.93
58072;BME280;60383;46.626;18.866;2023-09-19T09:53:03;100319.13;;;22.70;66.51
58072;BME280;60383;46.626;18.866;2023-09-19T09:58:52;100322.50;;;22.60;66.18
58072;BME280;60383;46.626;18.866;2023-09-19T10:01:24;100317.44;;;22.69;66.50
58072;BME280;60383;46.626;18.866;2023-09-19T10:03:57;100312.22;;;23.08;64.72
58072;BME280;60383;46.626;18.866;2023-09-19T10:06:23;100303.28;;;23.70;63.48
58072;BME280;60383;46.626;18.866;2023-09-19T10:09:09;100303.06;;;24.01;61.34
58072;BME280;60383;46.626;18.866;2023-09-19T10:11:46;100296.00;;;24.27;60.63
58072;BME280;60383;46.626;18.866;2023-09-19T10:14:14;100290.44;;;24.61;59.50
58072;BME280;60383;46.626;18.866;2023-09-19T10:16:45;100280.59;;;24.59;58.10
58072;BME280;60383;46.626;18.866;2023-09-19T10:19:23;100301.53;;;24.22;59.61
58072;BME280;60383;46.626;18.866;2023-09-19T10:21:55;100307.34;;;24.20;58.65
58072;BME280;60383;46.626;18.866;2023-09-19T10:24:22;100302.31;;;24.05;59.48
58072;BME280;60383;46.626;18.866;2023-09-19T10:26:50;100294.97;;;24.16;59.15
58072;BME280;60383;46.626;18.866;2023-09-19T10:29:17;100288.22;;;24.29;59.07
58072;BME280;60383;46.626;18.866;2023-09-19T10:31:47;100291.34;;;24.16;59.41
58072;BME280;60383;46.626;18.866;2023-09-19T10:34:16;100298.94;;;24.20;58.88
58072;BME280;60383;46.626;18.866;2023-09-19T10:36:45;100315.00;;;23.96;59.69
58072;BME280;60383;46.626;18.866;2023-09-19T10:39:14;100307.91;;;24.05;59.64
58072;BME280;60383;46.626;18.866;2023-09-19T10:41:49;100311.09;;;24.26;59.23
58072;BME280;60383;46.626;18.866;2023-09-19T10:44:21;100313.50;;;24.51;58.70
58072;BME280;60383;46.626;18.866;2023-09-19T10:46:49;100308.06;;;24.62;58.37
58072;BME280;60383;46.626;18.866;2023-09-19T10:49:15;100314.47;;;24.57;57.50
58072;BME280;60383;46.626;18.866;2023-09-19T10:51:42;100306.38;;;24.44;57.67
58072;BME280;60383;46.626;18.866;2023-09-19T10:54:11;100307.63;;;24.36;58.00
58072;BME280;60383;46.626;18.866;2023-09-19T10:56:42;100299.84;;;24.38;58.56
58072;BME280;60383;46.626;18.866;2023-09-19T10:59:21;100309.47;;;24.30;59.18
58072;BME280;60383;46.626;18.866;2023-09-19T11:01:49;100304.09;;;24.40;57.76
58072;BME280;60383;46.626;18.866;2023-09-19T11:04:24;100317.75;;;24.08;58.89
58072;BME280;60383;46.626;18.866;2023-09-19T11:07:07;100314.41;;;24.23;58.09
58072;BME280;60383;46.626;18.866;2023-09-19T11:09:47;100319.34;;;24.33;57.07
58072;BME280;60383;46.626;18.866;2023-09-19T11:15:02;100319.03;;;24.46;57.32
58072;BME280;60383;46.626;18.866;2023-09-19T11:17:40;100317.78;;;24.71;56.71
58072;BME280;60383;46.626;18.866;2023-09-19T11:30:48;100305.63;;;26.05;50.10
58072;BME280;60383;46.626;18.866;2023-09-19T11:33:43;100308.31;;;26.17;50.03
58072;BME280;60383;46.626;18.866;2023-09-19T11:36:15;100302.22;;;26.53;49.88
58072;BME280;60383;46.626;18.866;2023-09-19T11:46:33;100296.19;;;26.71;47.65
58072;BME280;60383;46.626;18.866;2023-09-19T11:49:09;100290.78;;;26.65;48.12
58072;BME280;60383;46.626;18.866;2023-09-19T11:51:42;100289.94;;;26.64;47.76
58072;BME280;60383;46.626;18.866;2023-09-19T11:54:13;100288.81;;;26.60;48.44
58072;BME280;60383;46.626;18.866;2023-09-19T11:56:43;100291.00;;;26.53;48.86
58072;BME280;60383;46.626;18.866;2023-09-19T11:59:10;100292.34;;;26.18;49.23
58072;BME280;60383;46.626;18.866;2023-09-19T12:01:38;100284.47;;;26.47;48.55
58072;BME280;60383;46.626;18.866;2023-09-19T12:04:11;100286.22;;;26.26;49.53
58072;BME280;60383;46.626;18.866;2023-09-19T12:06:37;100290.16;;;26.57;49.13
58072;BME280;60383;46.626;18.866;2023-09-19T12:09:12;100280.63;;;26.58;49.32
58072;BME280;60383;46.626;18.866;2023-09-19T12:11:42;100277.94;;;26.74;48.34
58072;BME280;60383;46.626;18.866;2023-09-19T12:14:11;100275.84;;;26.91;47.96
58072;BME280;60383;46.626;18.866;2023-09-19T12:16:56;100279.81;;;26.96;47.54
58072;BME280;60383;46.626;18.866;2023-09-19T12:19:22;100273.72;;;27.09;47.82
58072;BME280;60383;46.626;18.866;2023-09-19T12:21:58;100275.16;;;27.17;47.49
58072;BME280;60383;46.626;18.866;2023-09-19T12:24:26;100272.84;;;27.08;47.58
58072;BME280;60383;46.626;18.866;2023-09-19T12:27:03;100273.03;;;27.39;46.97
58072;BME280;60383;46.626;18.866;2023-09-19T12:29:45;100272.16;;;27.29;45.99
58072;BME280;60383;46.626;18.866;2023-09-19T12:32:11;100261.72;;;27.29;46.41
58072;BME280;60383;46.626;18.866;2023-09-19T12:34:37;100265.72;;;27.33;47.12
58072;BME280;60383;46.626;18.866;2023-09-19T12:37:13;100259.28;;;26.95;47.72
58072;BME280;60383;46.626;18.866;2023-09-19T12:39:53;100259.38;;;27.05;47.00
58072;BME280;60383;46.626;18.866;2023-09-19T12:42:25;100259.06;;;27.02;47.47
58072;BME280;60383;46.626;18.866;2023-09-19T12:44:58;100261.69;;;27.19;47.69
58072;BME280;60383;46.626;18.866;2023-09-19T12:47:27;100266.59;;;26.96;47.52
58072;BME280;60383;46.626;18.866;2023-09-19T12:50:12;100269.06;;;26.50;48.95
58072;BME280;60383;46.626;18.866;2023-09-19T12:52:49;100265.56;;;26.70;48.98
58072;BME280;60383;46.626;18.866;2023-09-19T12:55:25;100258.81;;;26.71;49.03
58072;BME280;60383;46.626;18.866;2023-09-19T12:58:13;100258.75;;;26.60;48.10
58072;BME280;60383;46.626;18.866;2023-09-19T13:00:45;100264.13;;;26.67;47.93
58072;BME280;60383;46.626;18.866;2023-09-19T13:03:16;100262.69;;;26.65;48.50
58072;BME280;60383;46.626;18.866;2023-09-19T13:05:59;100265.72;;;26.53;48.37
58072;BME280;60383;46.626;18.866;2023-09-19T13:08:38;100269.13;;;26.27;48.75
58072;BME280;60383;46.626;18.866;2023-09-19T13:11:07;100277.84;;;26.04;48.80
58072;BME280;60383;46.626;18.866;2023-09-19T13:13:44;100271.41;;;26.30;49.05
58072;BME280;60383;46.626;18.866;2023-09-19T13:16:11;100277.91;;;26.36;48.90
58072;BME280;60383;46.626;18.866;2023-09-19T13:18:44;100288.69;;;26.77;47.62
58072;BME280;60383;46.626;18.866;2023-09-19T13:21:12;100275.31;;;26.94;47.08
58072;BME280;60383;46.626;18.866;2023-09-19T13:23:42;100274.50;;;26.99;46.89
58072;BME280;60383;46.626;18.866;2023-09-19T13:26:09;100269.66;;;26.89;47.09
58072;BME280;60383;46.626;18.866;2023-09-19T13:28:37;100282.63;;;26.96;46.93
58072;BME280;60383;46.626;18.866;2023-09-19T13:31:02;100286.22;;;26.86;47.21
58072;BME280;60383;46.626;18.866;2023-09-19T13:33:28;100283.91;;;26.77;47.33
58072;BME280;60383;46.626;18.866;2023-09-19T13:35:54;100279.34;;;26.71;47.40
58072;BME280;60383;46.626;18.866;2023-09-19T13:38:20;100273.50;;;26.78;47.68
58072;BME280;60383;46.626;18.866;2023-09-19T13:40:47;100275.34;;;26.67;48.22